Time;durP1;ratioP1;P1;durP2;ratioP2;P2;SDS_P1;SDS_P2;PMS_P1;PMS_P2;Temp;Humidity;BMP_temperature;BMP_pressure;BME280_temperature;BME280_humidity;BME280_pressure;Samples;Min_cycle;Max_cycle;Signal;HPM_P1;HPM_P2
2021/10/29 00:02:05;;;;;;;81.55;41.77;;;;;;;9.12;77.25;102561.13;1754545;80;21372;-75
2021/10/29 00:04:39;;;;;;;102.35;45.63;;;;;;;9.13;77.33;102565.59;1776260;79;21194;-74
2021/10/29 00:07:12;;;;;;;;;;;;;;;9.11;77.37;102556.64;1778787;79;21341;-74
2021/10/29 00:09:44;;;;;;;97.47;45.40;;;;;;;9.07;77.33;102556.17;1776089;79;20192;-74
2021/10/29 00:12:18;;;;;;;96.70;43.42;;;;;;;9.03;77.53;102552.12;1803728;78;22394;-74
2021/10/29 00:14:52;;;;;;;90.62;44.20;;;;;;;9.03;77.64;102554.02;1808520;78;21464;-75
2021/10/29 00:17:25;;;;;;;90.60;46.02;;;;;;;9.01;77.66;102551.45;1808697;79;21325;-75
2021/10/29 00:19:57;;;;;;;92.40;45.12;;;;;;;8.99;77.68;102552.73;1808787;79;21400;-74
2021/10/29 00:22:30;;;;;;;95.35;44.13;;;;;;;8.99;77.71;102553.58;1807438;78;21352;-74
2021/10/29 00:25:02;;;;;;;91.72;43.95;;;;;;;8.97;77.77;102554.32;1809029;79;21341;-74
2021/10/29 00:27:37;;;;;;;87.82;44.45;;;;;;;8.97;77.72;102549.30;1809176;79;21182;-73
2021/10/29 00:39:51;;;;;;;101.55;45.60;;;;;;;8.98;77.83;102549.09;1777461;80;21276;-84
2021/10/29 00:42:24;;;;;;;101.95;46.42;;;;;;;8.94;77.80;102544.18;1844626;77;21300;-86
2021/10/29 00:45:02;;;;;;;94.83;47.23;;;;;;;8.93;77.82;102548.84;1846745;77;21886;-84
2021/10/29 00:47:39;;;;;;;97.50;47.85;;;;;;;8.93;77.92;102547.47;1840032;77;21742;-83
2021/10/29 00:50:21;;;;;;;97.92;46.18;;;;;;;8.95;77.94;102551.42;1835725;77;21351;-84
2021/10/29 00:52:54;;;;;;;97.20;50.05;;;;;;;8.93;77.83;102548.84;1842233;77;21359;-83
2021/10/29 00:55:27;;;;;;;93.50;47.83;;;;;;;8.90;77.83;102553.43;1817089;78;21665;-84
2021/10/29 00:58:00;;;;;;;89.40;45.37;;;;;;;8.87;77.90;102555.20;1817044;78;21308;-82
2021/10/29 01:00:32;;;;;;;85.85;44.00;;;;;;;8.85;77.95;102554.56;1855428;77;21312;-82
2021/10/29 01:03:05;;;;;;;98.77;47.63;;;;;;;8.86;78.10;102552.63;1817245;78;21170;-82
2021/10/29 01:05:39;;;;;;;101.02;49.03;;;;;;;8.88;78.43;102556.91;1789974;77;21201;-74
2021/10/29 01:08:14;;;;;;;102.92;49.50;;;;;;;8.87;78.41;102551.05;1754729;81;21379;-73
2021/10/29 01:10:49;;;;;;;89.97;40.65;;;;;;;8.86;78.62;102553.50;1778989;81;21331;-73
2021/10/29 01:13:22;;;;;;;88.62;40.40;;;;;;;8.85;78.71;102558.72;1744901;82;21392;-74
2021/10/29 01:15:58;;;;;;;85.35;43.17;;;;;;;8.86;79.62;102554.02;1776399;81;21368;-73
2021/10/29 01:18:30;;;;;;;83.67;40.73;;;;;;;8.90;80.15;102550.66;1744852;82;21830;-75
2021/10/29 01:21:04;;;;;;;91.45;42.03;;;;;;;8.92;80.37;102547.14;1776665;80;21818;-73
2021/10/29 01:23:39;;;;;;;73.35;36.75;;;;;;;8.99;80.84;102553.58;1776674;81;21173;-74
2021/10/29 01:26:16;;;;;;;79.97;37.85;;;;;;;9.05;81.02;102549.98;1744740;82;21162;-73
2021/10/29 01:28:49;;;;;;;76.87;36.88;;;;;;;9.11;81.11;102545.56;1776453;81;21237;-73
2021/10/29 01:31:22;;;;;;;82.27;37.73;;;;;;;9.18;81.14;102545.89;1744841;82;21308;-74
2021/10/29 01:33:54;;;;;;;79.72;39.35;;;;;;;9.26;81.08;102552.67;1776808;80;21304;-73
2021/10/29 01:36:27;;;;;;;88.82;39.98;;;;;;;9.32;81.01;102542.66;1745063;82;21169;-74
2021/10/29 01:39:05;;;;;;;76.43;37.37;;;;;;;9.35;80.91;102547.26;1776824;80;21684;-73
2021/10/29 01:41:38;;;;;;;79.97;36.65;;;;;;;9.37;80.75;102547.06;1776519;81;21732;-74
2021/10/29 01:44:12;;;;;;;69.10;36.50;;;;;;;9.41;80.77;102556.13;1744801;82;21336;-73
2021/10/29 01:46:45;;;;;;;75.08;38.40;;;;;;;9.46;80.72;102543.02;1776470;80;21221;-74
2021/10/29 01:49:18;;;;;;;79.25;38.75;;;;;;;9.51;80.62;102551.06;1744931;82;21282;-73
2021/10/29 01:51:53;;;;;;;77.47;39.83;;;;;;;9.57;80.55;102546.07;1776976;80;21343;-73
2021/10/29 01:54:26;;;;;;;64.05;36.58;;;;;;;9.55;80.36;102545.41;1776611;81;21375;-73
2021/10/29 01:57:00;;;;;;;72.60;37.78;;;;;;;9.53;80.23;102542.00;1744792;82;21155;-73
2021/10/29 01:59:34;;;;;;;72.15;37.20;;;;;;;9.51;80.25;102544.13;1776551;81;21328;-75
2021/10/29 02:02:07;;;;;;;76.57;36.33;;;;;;;9.50;80.30;102550.74;1744850;82;21376;-73
2021/10/29 02:04:40;;;;;;;70.67;37.58;;;;;;;9.49;80.31;102553.17;1776736;81;21324;-73
2021/10/29 02:07:14;;;;;;;86.05;38.50;;;;;;;9.48;80.44;102556.17;1763826;81;21292;-74
2021/10/29 02:09:46;;;;;;;84.17;38.23;;;;;;;9.48;80.49;102551.46;1768256;81;21775;-74
2021/10/29 02:12:18;;;;;;;81.72;36.53;;;;;;;9.48;80.49;102557.56;1775749;80;21175;-74
2021/10/29 02:14:51;;;;;;;71.20;35.20;;;;;;;9.47;80.51;102558.08;1775832;81;21183;-73
2021/10/29 02:17:25;;;;;;;67.37;37.23;;;;;;;9.48;80.62;102559.78;1776093;81;21874;-73
2021/10/29 02:19:59;;;;;;;71.90;36.35;;;;;;;9.50;80.75;102563.22;1775796;81;21182;-74
2021/10/29 02:22:33;;;;;;;71.65;34.55;;;;;;;9.52;80.76;102563.86;1776116;80;21207;-73
2021/10/29 02:25:07;;;;;;;67.65;36.45;;;;;;;9.55;80.73;102566.20;1776044;80;21270;-73
2021/10/29 02:27:39;;;;;;;;;;;;;;;9.52;80.68;102572.18;1778767;81;21827;-73
2021/10/29 02:30:13;;;;;;;67.62;34.80;;;;;;;9.52;80.81;102572.18;1776005;81;20248;-73
2021/10/29 02:32:47;;;;;;;78.95;36.60;;;;;;;9.54;81.02;102568.66;1776176;81;21819;-74
2021/10/29 02:35:20;;;;;;;75.10;36.45;;;;;;;9.59;81.07;102574.95;1775999;80;21420;-75
2021/10/29 02:37:54;;;;;;;73.50;37.73;;;;;;;9.64;81.12;102575.20;1768072;81;21239;-73
2021/10/29 02:40:27;;;;;;;72.75;36.03;;;;;;;9.67;81.04;102569.25;1776222;81;21715;-73
2021/10/29 02:43:00;;;;;;;70.83;35.17;;;;;;;9.68;80.92;102578.72;1776179;81;21812;-74
2021/10/29 02:45:33;;;;;;;;;;;;;;;9.71;80.91;102576.94;1778531;81;21175;-76
2021/10/29 02:48:06;;;;;;;67.00;34.05;;;;;;;9.79;80.98;102578.67;1776000;81;20211;-73
2021/10/29 02:50:39;;;;;;;67.47;34.92;;;;;;;9.83;81.06;102581.33;1776092;81;21320;-74
2021/10/29 02:53:12;;;;;;;71.83;35.73;;;;;;;9.87;81.04;102566.86;1776134;81;21369;-74
2021/10/29 03:08:16;;;;;;;70.03;34.13;;;;;;;10.10;80.65;102563.73;1846912;77;21320;-81
2021/10/29 03:10:56;;;;;;;61.70;34.00;;;;;;;10.09;80.63;102574.51;1847002;77;21157;-81
2021/10/29 03:13:31;;;;;;;63.73;31.95;;;;;;;10.08;80.63;102570.86;1846869;77;21327;-87
2021/10/29 03:16:04;;;;;;;58.35;30.40;;;;;;;10.11;80.60;102576.53;1846949;77;21182;-86
2021/10/29 03:18:37;;;;;;;59.35;31.93;;;;;;;10.13;80.67;102581.33;1846634;77;21217;-84
2021/10/29 03:21:11;;;;;;;59.88;33.05;;;;;;;10.18;80.64;102581.55;1889053;76;21308;-83
2021/10/29 03:23:44;;;;;;;81.53;47.98;;;;;;;10.22;80.55;102582.85;1846935;77;21379;-73
2021/10/29 03:26:18;;;;;;;76.45;44.60;;;;;;;10.23;80.57;102578.48;1888810;76;21948;-74
2021/10/29 03:28:51;;;;;;;63.33;37.65;;;;;;;10.23;80.47;102576.23;1853726;76;21351;-74
2021/10/29 03:31:25;;;;;;;72.90;34.90;;;;;;;10.26;80.50;102583.59;1846872;77;21363;-75
2021/10/29 03:34:01;;;;;;;58.20;31.50;;;;;;;10.30;80.54;102583.51;1888973;76;21801;-76
2021/10/29 03:36:33;;;;;;;58.92;32.15;;;;;;;10.33;80.53;102581.67;1847149;77;21316;-74
2021/10/29 03:39:11;;;;;;;62.10;31.10;;;;;;;10.37;80.48;102580.72;1889472;76;21409;-75
2021/10/29 03:41:52;;;;;;;56.18;28.98;;;;;;;10.39;80.48;102589.16;1854410;76;21848;-74
2021/10/29 03:47:01;;;;;;;61.30;28.83;;;;;;;10.45;80.34;102581.36;1888946;76;21318;-75
2021/10/29 03:49:40;;;;;;;67.30;30.62;;;;;;;10.49;80.45;102586.82;1846803;77;21314;-74
2021/10/29 03:52:21;;;;;;;50.00;28.80;;;;;;;10.54;80.45;102585.66;1884066;76;21308;-74
2021/10/29 03:54:50;;;;;;;63.63;31.52;;;;;;;10.59;80.43;102593.34;1846001;77;21304;-75
2021/10/29 03:57:27;;;;;;;52.58;30.43;;;;;;;10.61;80.41;102599.00;1888782;76;21303;-74
2021/10/29 04:00:00;;;;;;;48.68;28.42;;;;;;;10.62;80.34;102597.06;1846777;77;21413;-75
2021/10/29 04:02:34;;;;;;;52.05;29.10;;;;;;;10.60;80.37;102601.47;1888850;76;21309;-75
2021/10/29 04:05:07;;;;;;;;;;;;;;;10.61;80.49;102603.17;1845957;77;21972;-75
2021/10/29 04:07:40;;;;;;;53.87;29.92;;;;;;;10.64;80.51;102601.89;1803746;78;20249;-73
2021/10/29 04:10:12;;;;;;;56.13;29.90;;;;;;;10.64;80.56;102601.89;1847502;77;21746;-75
2021/10/29 04:12:47;;;;;;;49.93;26.77;;;;;;;10.63;80.66;102606.58;1838117;78;21676;-76
2021/10/29 04:15:20;;;;;;;63.55;29.05;;;;;;;10.65;80.69;102603.59;1847378;77;21311;-74
2021/10/29 04:17:52;;;;;;;52.80;28.95;;;;;;;10.67;80.77;102610.64;1838532;77;21209;-74
2021/10/29 04:20:25;;;;;;;60.58;28.07;;;;;;;10.73;80.79;102604.23;1847257;77;21307;-74
2021/10/29 04:22:58;;;;;;;54.48;29.60;;;;;;;10.76;80.72;102605.18;1838413;78;21851;-75
2021/10/29 04:25:31;;;;;;;54.50;28.60;;;;;;;10.79;80.65;102610.33;1847121;77;21163;-76
2021/10/29 04:28:12;;;;;;;52.40;28.30;;;;;;;10.81;80.47;102614.25;1838423;77;21319;-77
2021/10/29 04:30:45;;;;;;;59.25;27.95;;;;;;;10.79;80.40;102617.27;1847212;77;21810;-79
2021/10/29 04:33:20;;;;;;;60.40;29.65;;;;;;;10.81;80.53;102614.25;1838423;77;21914;-75
2021/10/29 04:35:53;;;;;;;54.08;29.25;;;;;;;10.85;80.55;102618.32;1847410;77;21802;-76
2021/10/29 04:38:27;;;;;;;63.85;30.97;;;;;;;10.89;80.60;102618.22;1838538;78;21835;-74
2021/10/29 04:41:03;;;;;;;57.62;31.05;;;;;;;10.88;80.47;102622.91;1814190;77;21830;-76
2021/10/29 04:43:38;;;;;;;57.78;31.82;;;;;;;10.89;80.38;102631.56;1838438;78;21299;-75
2021/10/29 04:46:11;;;;;;;75.47;32.95;;;;;;;10.94;80.33;102633.72;1847044;77;21268;-75
2021/10/29 04:48:44;;;;;;;68.70;35.80;;;;;;;10.96;80.24;102637.97;1838414;78;21806;-75
2021/10/29 04:51:18;;;;;;;;;;;;;;;11.00;80.18;102637.87;1849745;77;21894;-75
2021/10/29 04:53:51;;;;;;;78.60;39.92;;;;;;;11.00;80.05;102639.26;1847309;77;20294;-74
2021/10/29 04:56:23;;;;;;;65.87;38.13;;;;;;;10.97;79.99;102642.48;1838359;78;21138;-74
2021/10/29 04:58:56;;;;;;;74.87;37.13;;;;;;;10.98;80.06;102644.70;1847325;77;21340;-74
2021/10/29 05:01:28;;;;;;;65.42;34.98;;;;;;;10.99;80.10;102654.23;1833903;77;21328;-77
2021/10/29 05:04:01;;;;;;;;;;;;;;;11.02;80.15;102651.56;1840981;78;21143;-75
2021/10/29 05:06:35;;;;;;;79.32;39.33;;;;;;;11.05;80.08;102656.67;1844935;77;20258;-78
2021/10/29 05:09:12;;;;;;;58.87;34.48;;;;;;;11.05;80.03;102658.06;1848741;77;21766;-71
2021/10/29 05:11:45;;;;;;;69.92;35.50;;;;;;;11.06;79.95;102657.85;1850016;77;21325;-77
2021/10/29 05:14:17;;;;;;;;;;;;;;;11.09;79.91;102654.66;1898050;75;21288;-77
2021/10/29 05:16:50;;;;;;;59.45;32.95;;;;;;;11.14;79.92;102664.57;1895005;75;20227;-79
2021/10/29 05:19:23;;;;;;;70.28;34.78;;;;;;;11.18;79.88;102656.13;1895489;75;21331;-73
2021/10/29 05:21:56;;;;;;;69.27;31.40;;;;;;;11.24;79.80;102662.73;1895209;75;21145;-78
2021/10/29 05:24:29;;;;;;;54.50;31.55;;;;;;;11.28;79.62;102662.63;1895288;75;21286;-78
2021/10/29 05:27:02;;;;;;;58.30;29.32;;;;;;;11.30;79.54;102669.69;1895460;75;21324;-76
2021/10/29 05:29:34;;;;;;;69.32;30.10;;;;;;;11.34;79.44;102668.72;1895346;75;21149;-77
2021/10/29 05:32:08;;;;;;;57.90;28.83;;;;;;;11.41;79.43;102671.81;1895112;75;21641;-76
2021/10/29 05:34:42;;;;;;;67.20;31.65;;;;;;;11.46;79.33;102668.38;1895497;75;21351;-79
2021/10/29 05:37:17;;;;;;;53.65;30.48;;;;;;;11.52;79.17;102678.63;1895236;75;21309;-76
2021/10/29 05:39:50;;;;;;;61.35;29.23;;;;;;;11.56;78.98;102677.13;1861149;75;21810;-74
2021/10/29 05:42:23;;;;;;;62.53;29.00;;;;;;;11.60;78.80;102677.89;1750920;82;21395;-77
2021/10/29 05:44:59;;;;;;;59.38;30.95;;;;;;;11.64;78.74;102683.87;1751019;82;21814;-75
2021/10/29 05:47:32;;;;;;;65.45;31.68;;;;;;;11.69;78.63;102684.08;1715426;83;21242;-76
2021/10/29 05:52:44;;;;;;;76.37;31.57;;;;;;;11.77;78.43;102682.44;1714978;83;21347;-75
2021/10/29 05:55:17;;;;;;;64.42;32.05;;;;;;;11.79;78.28;102685.88;1714976;83;21355;-76
2021/10/29 05:57:52;;;;;;;57.15;28.25;;;;;;;11.81;78.23;102690.67;1715232;83;21439;-77
2021/10/29 06:00:30;;;;;;;75.37;31.75;;;;;;;11.82;78.22;102701.60;1755306;77;21352;-73
2021/10/29 06:03:09;;;;;;;66.22;30.55;;;;;;;11.85;78.27;102698.36;1887661;75;21326;-74
2021/10/29 06:05:40;;;;;;;80.32;33.05;;;;;;;11.88;78.35;102691.50;1890003;75;21300;-75
2021/10/29 06:08:17;;;;;;;75.85;34.40;;;;;;;11.94;78.31;102701.76;1872230;75;21356;-77
2021/10/29 06:10:49;;;;;;;;;;;;;;;11.98;78.16;102707.21;1872855;76;21756;-73
2021/10/29 06:13:22;;;;;;;66.45;30.25;;;;;;;11.99;78.02;102702.80;1871137;76;20251;-75
2021/10/29 06:15:56;;;;;;;74.82;27.75;;;;;;;12.01;77.91;102703.45;1871565;75;21331;-77
2021/10/29 06:18:29;;;;;;;71.65;28.20;;;;;;;12.03;77.79;102711.56;1868912;76;21936;-75
2021/10/29 06:21:04;;;;;;;61.58;27.37;;;;;;;12.07;77.63;102705.35;1871178;76;21306;-75
2021/10/29 06:26:27;;;;;;;57.27;28.95;;;;;;;12.15;77.13;102702.30;1843138;76;21769;-75
2021/10/29 06:29:01;;;;;;;65.62;27.45;;;;;;;12.18;76.98;102709.37;1850398;76;21423;-74
2021/10/29 06:31:35;;;;;;;60.55;28.87;;;;;;;12.21;76.87;102713.95;1872873;76;21895;-76
2021/10/29 06:34:07;;;;;;;70.83;30.33;;;;;;;12.26;76.80;102714.15;1846869;76;21854;-75
2021/10/29 06:36:40;;;;;;;63.87;29.00;;;;;;;12.31;76.71;102714.34;1820985;76;21191;-75
2021/10/29 06:39:14;;;;;;;61.65;31.73;;;;;;;12.38;76.46;102711.50;1873786;76;21372;-74
2021/10/29 06:41:47;;;;;;;63.40;27.67;;;;;;;12.41;76.17;102720.83;1872420;76;21329;-78
2021/10/29 06:44:31;;;;;;;62.48;30.05;;;;;;;12.44;75.98;102721.76;1871326;76;21684;-75
2021/10/29 07:00:42;;;;;;;63.40;28.98;;;;;;;12.71;75.61;102722.77;1871026;76;21273;-75
2021/10/29 07:40:05;;;;;;;84.60;40.78;;;;;;;13.80;73.59;102730.93;1876400;76;21303;-75
2021/10/29 07:42:53;;;;;;;70.85;37.38;;;;;;;13.92;73.34;102729.08;1875679;76;21687;-75
2021/10/29 07:45:15;;;;;;;67.10;39.00;;;;;;;14.01;73.17;102731.88;1875982;76;21135;-74
2021/10/29 07:47:49;;;;;;;71.80;36.03;;;;;;;14.03;73.06;102729.70;1884911;76;21429;-74
2021/10/29 07:50:22;;;;;;;63.85;32.13;;;;;;;14.11;72.89;102731.64;1841685;76;21165;-74
2021/10/29 07:52:57;;;;;;;56.25;31.48;;;;;;;14.13;72.79;102729.45;1880082;76;21201;-75
2021/10/29 07:55:30;;;;;;;59.85;33.10;;;;;;;14.17;72.72;102739.09;1881177;76;21193;-77
2021/10/29 07:58:03;;;;;;;67.92;33.40;;;;;;;14.19;72.76;102732.74;1876476;76;21149;-73
2021/10/29 08:00:36;;;;;;;59.58;32.45;;;;;;;14.28;72.67;102736.95;1879698;76;21817;-77
2021/10/29 08:03:08;;;;;;;68.67;35.10;;;;;;;14.34;72.62;102741.59;1880318;75;21327;-76
2021/10/29 08:06:00;;;;;;;58.25;32.88;;;;;;;14.43;72.51;102741.56;1880950;76;21359;31
2021/10/29 08:08:33;;;;;;;59.38;31.80;;;;;;;14.50;72.44;102739.56;1803461;77;21372;-77
2021/10/29 08:11:05;;;;;;;62.23;32.40;;;;;;;14.55;72.35;102734.09;1802946;78;21319;-80
2021/10/29 08:13:38;;;;;;;53.35;30.48;;;;;;;14.62;72.35;102745.19;1798244;78;21406;-80
2021/10/29 08:16:26;;;;;;;47.30;26.83;;;;;;;14.68;72.22;102746.52;1802669;77;21204;-80
2021/10/29 08:19:31;;;;;;;48.17;28.52;;;;;;;14.77;71.87;102746.47;1801482;78;21374;-79
2021/10/29 08:22:06;;;;;;;55.83;30.60;;;;;;;14.81;71.61;102747.70;1802926;78;21272;-76
2021/10/29 08:24:39;;;;;;;54.77;27.73;;;;;;;14.83;71.24;102755.31;1795005;78;21324;-76
2021/10/29 08:27:11;;;;;;;53.92;30.88;;;;;;;14.83;71.15;102751.11;1798078;78;21296;-77
2021/10/29 08:29:44;;;;;;;59.25;31.85;;;;;;;14.82;70.98;102752.20;1796490;77;21311;-75
2021/10/29 08:32:17;;;;;;;54.42;29.25;;;;;;;14.85;71.24;102750.31;1802442;78;21685;-75
2021/10/29 08:34:50;;;;;;;51.80;32.33;;;;;;;14.90;71.08;102753.25;1800776;79;21305;-73
2021/10/29 08:37:28;;;;;;;51.60;30.00;;;;;;;14.96;70.98;102751.47;1804393;78;21287;-73
2021/10/29 08:39:59;;;;;;;50.00;28.98;;;;;;;15.02;70.85;102744.35;1799370;78;21188;-74
2021/10/29 08:42:31;;;;;;;;;;;;;;;15.04;70.52;102751.12;1811524;78;21162;-74
2021/10/29 08:45:05;;;;;;;52.53;31.35;;;;;;;15.04;70.41;102754.75;1809222;77;20192;-74
2021/10/29 08:47:43;;;;;;;52.75;29.67;;;;;;;15.05;70.40;102759.28;1800416;78;21378;-73
2021/10/29 08:50:19;;;;;;;51.70;30.50;;;;;;;15.08;70.47;102757.39;1799662;79;21366;-72
2021/10/29 08:52:53;;;;;;;57.83;29.82;;;;;;;15.12;70.40;102768.42;1804379;78;21168;-74
2021/10/29 08:55:27;;;;;;;52.15;29.10;;;;;;;15.11;70.04;102761.66;1803283;77;21311;-73
2021/10/29 08:58:02;;;;;;;47.10;26.62;;;;;;;15.13;70.23;102749.66;1809365;78;21299;-72
2021/10/29 09:00:43;;;;;;;47.50;27.93;;;;;;;15.20;70.37;102750.41;1821115;77;21714;-72
2021/10/29 09:03:30;;;;;;;48.48;28.60;;;;;;;15.25;69.89;102753.34;1796679;78;21303;-74
2021/10/29 09:06:16;;;;;;;50.33;28.02;;;;;;;15.23;69.71;102756.41;1795100;79;21833;-75
2021/10/29 09:09:00;;;;;;;49.25;28.65;;;;;;;15.22;69.73;102753.27;1797584;78;21825;-75
2021/10/29 09:31:28;;;;;;;51.60;31.93;;;;;;;15.15;69.57;102752.53;1778889;80;21241;-78
2021/10/29 09:34:10;;;;;;;50.35;29.40;;;;;;;15.18;69.44;102761.86;1777474;79;21389;-80
2021/10/29 09:36:46;;;;;;;51.77;30.37;;;;;;;15.19;69.28;102760.77;1796286;78;21212;-72
2021/10/29 09:39:31;;;;;;;47.05;29.32;;;;;;;15.24;69.28;102767.03;1791691;77;22023;-75
2021/10/29 09:42:13;;;;;;;42.13;27.80;;;;;;;15.25;69.06;102758.41;1796287;79;21821;-70
2021/10/29 09:44:57;;;;;;;43.90;29.20;;;;;;;15.23;69.25;102764.80;1802981;78;21249;-69
2021/10/29 09:47:28;;;;;;;53.35;29.35;;;;;;;15.23;69.10;102760.60;1800461;78;21299;-69
2021/10/29 09:50:07;;;;;;;53.95;30.30;;;;;;;15.23;69.17;102759.20;1806194;79;21806;-75
2021/10/29 09:55:24;;;;;;;54.77;27.32;;;;;;;15.17;69.25;102754.56;1797626;79;21145;-77
2021/10/29 09:57:54;;;;;;;42.10;25.65;;;;;;;15.17;69.42;102764.36;1803997;77;21569;-77
2021/10/29 10:00:30;;;;;;;40.52;25.95;;;;;;;15.17;69.36;102756.50;1799753;78;21311;-75
2021/10/29 10:03:03;;;;;;;42.45;25.57;;;;;;;15.16;69.49;102757.03;1802751;77;21826;-80
2021/10/29 10:05:37;;;;;;;42.20;23.12;;;;;;;15.20;69.38;102756.00;1805713;77;21209;-78
2021/10/29 10:08:11;;;;;;;42.93;25.17;;;;;;;15.24;69.31;102751.11;1801259;79;21213;-77
2021/10/29 10:10:49;;;;;;;41.05;24.32;;;;;;;15.28;69.09;102748.67;1740915;80;21324;-81
2021/10/29 10:13:21;;;;;;;36.17;23.70;;;;;;;15.30;68.88;102745.08;1767518;80;21324;-80
2021/10/29 10:15:58;;;;;;;40.25;23.65;;;;;;;15.32;68.78;102741.48;1776342;80;21929;-78
2021/10/29 10:18:30;;;;;;;34.33;20.90;;;;;;;15.33;68.61;102744.64;1771141;80;21355;-79
2021/10/29 10:21:07;;;;;;;28.87;16.05;;;;;;;15.32;68.52;102745.67;1764853;80;21334;-81
2021/10/29 10:23:42;;;;;;;27.40;15.83;;;;;;;15.29;68.49;102742.84;1789189;79;21221;-80
2021/10/29 10:46:13;;;;;;;14.83;9.93;;;;;;;15.16;67.72;102731.01;1741573;80;21854;-77
2021/10/29 10:48:51;;;;;;;16.05;10.75;;;;;;;15.16;67.53;102726.24;1742894;82;21315;-75
2021/10/29 10:51:50;;;;;;;16.32;9.83;;;;;;;15.15;67.49;102732.94;1740597;82;21360;-76
2021/10/29 11:00:03;;;;;;;15.72;9.93;;;;;;;15.09;67.22;102735.30;1743777;81;21384;-74
2021/10/29 11:11:07;;;;;;;18.25;11.53;;;;;;;15.08;67.27;102732.20;1828060;77;21225;-74
2021/10/29 11:13:53;;;;;;;21.77;12.43;;;;;;;15.11;67.25;102729.47;1831903;78;21153;-75
2021/10/29 11:16:42;;;;;;;19.15;13.00;;;;;;;15.11;67.38;102727.54;1829310;77;21292;-75
2021/10/29 11:19:25;;;;;;;23.85;12.07;;;;;;;15.13;67.51;102729.54;1826251;77;21292;-75
2021/10/29 11:21:55;;;;;;;19.10;11.57;;;;;;;15.16;67.44;102722.05;1830331;77;21844;-74
2021/10/29 11:24:35;;;;;;;19.50;10.50;;;;;;;15.20;67.33;102716.28;1827208;78;21435;-76
2021/10/29 11:27:18;;;;;;;20.12;10.35;;;;;;;15.24;67.18;102724.52;1824163;78;21147;-76
2021/10/29 11:29:52;;;;;;;15.90;8.85;;;;;;;15.27;67.05;102728.78;1824187;77;21327;-78
2021/10/29 11:32:26;;;;;;;12.05;7.90;;;;;;;15.29;66.55;102730.24;1830718;78;21364;-76
2021/10/29 11:34:59;;;;;;;14.83;8.10;;;;;;;15.26;66.24;102724.25;1838089;77;21301;-77
2021/10/29 11:37:36;;;;;;;13.72;8.23;;;;;;;15.25;66.28;102730.41;1824119;77;21359;-75
2021/10/29 11:40:08;;;;;;;18.15;9.30;;;;;;;15.23;66.22;102721.95;1833966;76;21304;-77
2021/10/29 11:42:42;;;;;;;14.75;9.25;;;;;;;15.24;66.28;102730.11;1827271;78;22021;-75
2021/10/29 11:45:15;;;;;;;;;;;;;;;15.24;66.35;102725.91;1832868;77;21130;-74
2021/10/29 11:47:59;;;;;;;13.75;7.80;;;;;;;15.26;66.34;102722.31;1826428;77;20276;-76
2021/10/29 11:50:31;;;;;;;15.43;9.10;;;;;;;15.27;66.16;102721.22;1783583;80;21182;-75
2021/10/29 11:53:04;;;;;;;13.65;8.28;;;;;;;15.29;66.14;102724.65;1838170;77;21877;-73
2021/10/29 11:55:46;;;;;;;14.15;9.40;;;;;;;15.30;66.08;102734.74;1828610;77;21303;-76
2021/10/29 12:09:30;;;;;;;20.27;8.78;;;;;;;15.56;66.02;102716.09;1824722;77;21292;-76
2021/10/29 12:12:18;;;;;;;15.10;9.65;;;;;;;15.68;65.62;102718.34;1831406;78;21347;-78
2021/10/29 12:14:52;;;;;;;12.93;8.55;;;;;;;15.75;65.54;102721.87;1825845;77;21193;-74
2021/10/29 12:17:34;;;;;;;13.43;7.62;;;;;;;15.84;64.98;102720.41;1823953;78;21680;-75
2021/10/29 12:20:10;;;;;;;16.00;8.68;;;;;;;15.88;64.58;102727.20;1825362;77;21287;-84
2021/10/29 12:22:50;;;;;;;16.57;9.08;;;;;;;15.93;64.32;102723.66;1819161;77;21664;-83
2021/10/29 12:28:10;;;;;;;19.17;8.83;;;;;;;15.97;64.17;102720.14;1834110;77;21325;-79
2021/10/29 12:31:11;;;;;;;15.75;8.75;;;;;;;15.99;64.09;102723.55;1819722;78;21356;-82
2021/10/29 12:59:29;;;;;;;14.90;8.50;;;;;;;16.00;63.82;102706.19;1806038;79;21734;-80
2021/10/29 13:02:00;;;;;;;;;;;;;;;16.03;63.77;102711.59;1778876;80;21177;-80
2021/10/29 13:04:41;;;;;;;11.73;6.95;;;;;;;16.06;63.58;102714.45;1739981;82;20244;-82
2021/10/29 13:07:13;;;;;;;15.03;7.75;;;;;;;16.05;63.59;102709.95;1721125;83;21858;-77
2021/10/29 13:09:47;;;;;;;15.10;8.45;;;;;;;16.05;63.25;102716.95;1739825;82;21858;-77
2021/10/29 13:12:36;;;;;;;10.95;6.78;;;;;;;16.02;63.10;102720.80;1704129;84;21182;-78
2021/10/29 13:15:02;;;;;;;12.10;6.80;;;;;;;15.97;62.99;102714.55;1753486;81;21174;-73
2021/10/29 13:17:39;;;;;;;12.43;7.67;;;;;;;15.92;63.09;102707.42;1776805;81;21246;-81
2021/10/29 13:28:57;;;;;;;14.53;7.92;;;;;;;15.84;63.40;102712.02;1742130;81;21281;-81
2021/10/29 13:37:13;;;;;;;16.42;7.22;;;;;;;15.85;63.64;102706.70;1775705;81;21882;-78
2021/10/29 13:51:27;;;;;;;12.50;6.92;;;;;;;15.80;63.40;102700.11;1774853;81;21672;-77
2021/10/29 13:54:08;;;;;;;12.23;6.58;;;;;;;15.75;63.40;102699.99;1746138;77;21719;-76
2021/10/29 14:30:50;;;;;;;13.15;7.80;;;;;;;15.07;65.37;102695.52;1776103;79;21820;-81
2021/10/29 14:33:17;;;;;;;14.83;8.43;;;;;;;15.02;65.49;102695.95;1803796;79;21155;-78
2021/10/29 14:35:49;;;;;;;17.30;9.85;;;;;;;15.00;65.64;102705.98;1801771;78;21298;-79
2021/10/29 14:38:44;;;;;;;18.90;10.00;;;;;;;15.00;65.79;102707.38;1831517;77;21241;-79
2021/10/29 14:41:19;;;;;;;17.85;10.95;;;;;;;14.99;65.97;102703.41;1829435;78;21688;-76
2021/10/29 14:44:05;;;;;;;16.00;11.00;;;;;;;14.97;66.14;102704.20;1832205;78;21329;-79
2021/10/29 14:49:31;;;;;;;22.40;11.22;;;;;;;14.89;66.69;102701.73;1828889;78;21734;-74
2021/10/29 14:52:24;;;;;;;23.95;12.05;;;;;;;14.79;66.96;102696.72;1831602;78;21412;-79
2021/10/29 15:26:26;;;;;;;51.35;24.05;;;;;;;13.96;70.66;102714.44;1829991;75;21212;-84
2021/10/29 15:31:55;;;;;;;58.17;24.00;;;;;;;13.86;70.82;102716.91;1862948;75;21346;-81
2021/10/29 15:45:49;;;;;;;58.70;26.57;;;;;;;13.42;72.56;102721.89;1855422;77;21166;-76
2021/10/29 15:48:28;;;;;;;57.03;28.17;;;;;;;13.32;73.07;102728.55;1855729;77;21382;-84
2021/10/29 15:51:01;;;;;;;71.65;31.07;;;;;;;13.32;73.07;102728.55;1855374;76;21198;-84
2021/10/29 15:53:34;;;;;;;101.15;45.23;;;;;;;13.21;73.42;102724.55;1855990;76;21299;-79
2021/10/29 15:56:21;;;;;;;101.12;46.90;;;;;;;13.21;73.42;102724.55;1855926;77;21822;-82
2021/10/29 16:01:47;;;;;;;140.88;62.60;;;;;;;13.13;74.13;102729.02;1815310;77;21791;-80
2021/10/29 16:18:59;;;;;;;201.02;85.10;;;;;;;12.63;76.00;102745.34;1843922;78;21198;-81
2021/10/29 16:21:55;;;;;;;203.65;77.47;;;;;;;12.59;75.96;102751.59;1843958;78;21312;-81
2021/10/29 16:24:29;;;;;;;196.98;70.97;;;;;;;12.45;76.13;102753.59;1844693;77;21308;-81
2021/10/29 16:27:05;;;;;;;191.18;64.40;;;;;;;12.37;76.38;102757.16;1864207;76;21325;-82
2021/10/29 16:29:37;;;;;;;205.03;64.60;;;;;;;12.31;76.61;102754.73;1811640;78;21308;-80
2021/10/29 16:32:17;;;;;;;168.28;62.13;;;;;;;12.27;76.90;102764.59;1865307;75;21354;-81
2021/10/29 16:34:49;;;;;;;181.57;65.10;;;;;;;12.27;77.03;102765.98;1870270;76;21328;-81
2021/10/29 16:37:28;;;;;;;207.00;67.12;;;;;;;12.26;77.06;102762.89;1882343;76;21260;-83
2021/10/29 16:40:02;;;;;;;171.93;63.70;;;;;;;12.24;77.10;102772.55;1820538;76;21837;-75
2021/10/29 16:42:37;;;;;;;177.68;61.25;;;;;;;12.20;77.16;102772.13;1822264;77;21423;-79
2021/10/29 16:45:22;;;;;;;200.07;65.20;;;;;;;12.15;77.25;102769.14;1820853;78;21311;-85
2021/10/29 16:47:54;;;;;;;180.97;66.70;;;;;;;12.12;77.41;102765.95;1802740;79;21513;-82
2021/10/29 16:50:27;;;;;;;198.00;66.92;;;;;;;12.10;77.51;102768.94;1747215;79;21305;-80
2021/10/29 16:52:59;;;;;;;234.50;77.53;;;;;;;12.07;77.64;102764.35;1796242;78;21358;-83
2021/10/29 16:55:34;;;;;;;244.50;85.22;;;;;;;12.07;77.81;102767.14;1862975;76;21391;-81